Time;durP1;ratioP1;P1;durP2;ratioP2;P2;SDS_P1;SDS_P2;PMS_P1;PMS_P2;Temp;Humidity;BMP_temperature;BMP_pressure;BME280_temperature;BME280_humidity;BME280_pressure;Samples;Min_cycle;Max_cycle;Signal;HPM_P1;HPM_P2
2022/07/21 00:01:38;;;;;;;4.53;3.58;;;;;;;21.97;66.62;100782.59;4977470;28;102142;-66
2022/07/21 00:04:05;;;;;;;4.13;3.60;;;;;;;21.96;66.60;100792.06;4975909;28;102355;-66
2022/07/21 00:06:31;;;;;;;4.38;3.90;;;;;;;21.96;66.62;100786.53;4978304;28;102521;-66
2022/07/21 00:08:58;;;;;;;38.03;4.65;;;;;;;21.94;66.64;100785.25;4976112;28;103925;-66
2022/07/21 00:11:24;;;;;;;13.38;3.67;;;;;;;21.95;66.63;100784.06;4977014;28;102275;-66
2022/07/21 00:13:52;;;;;;;7.00;3.78;;;;;;;21.95;66.60;100790.41;4976047;28;102215;-67
2022/07/21 00:16:19;;;;;;;4.40;4.00;;;;;;;21.95;66.60;100800.69;4977957;28;102145;-65
2022/07/21 00:18:47;;;;;;;4.38;3.85;;;;;;;21.94;66.97;100793.56;4975822;28;103931;-66
2022/07/21 00:21:14;;;;;;;5.00;3.72;;;;;;;21.94;66.82;100799.09;4977625;28;102169;-65
2022/07/21 00:23:41;;;;;;;3.70;3.40;;;;;;;21.93;66.70;100803.03;4976715;28;102216;-66
2022/07/21 00:26:07;;;;;;;5.20;3.80;;;;;;;21.93;66.76;100805.81;4978523;28;101815;-66
2022/07/21 00:28:34;;;;;;;3.97;3.58;;;;;;;21.93;66.70;100808.56;4972555;28;103832;-66
2022/07/21 00:31:00;;;;;;;5.85;4.18;;;;;;;21.92;66.59;100807.75;4977898;28;102074;-66
2022/07/21 00:33:27;;;;;;;4.28;3.88;;;;;;;21.92;66.76;100812.47;4977158;28;102689;-66
2022/07/21 00:35:55;;;;;;;4.78;4.13;;;;;;;21.91;66.57;100805.31;4976110;28;102594;-66
2022/07/21 00:38:21;;;;;;;5.13;3.80;;;;;;;21.91;66.42;100813.63;4976571;28;103977;-66
2022/07/21 00:40:48;;;;;;;4.65;4.25;;;;;;;21.90;66.35;100809.25;4960186;28;101918;-66
2022/07/21 00:43:14;;;;;;;5.65;3.80;;;;;;;21.89;66.66;100810.38;4961247;28;101974;-65
2022/07/21 00:45:40;;;;;;;3.90;3.40;;;;;;;21.88;66.71;100812.34;4976363;28;102364;-66
2022/07/21 00:48:07;;;;;;;3.90;3.60;;;;;;;21.89;66.77;100819.53;4976395;28;104147;-66
2022/07/21 00:50:34;;;;;;;3.92;3.63;;;;;;;21.89;66.81;100830.63;4975827;28;102674;-65
2022/07/21 00:53:02;;;;;;;4.15;3.83;;;;;;;21.87;66.56;100830.13;4976146;28;102110;-66
2022/07/21 00:55:29;;;;;;;5.63;3.33;;;;;;;21.88;66.75;100828.19;4977108;28;102237;-66
2022/07/21 00:57:56;;;;;;;4.63;3.80;;;;;;;21.88;66.60;100833.72;4975575;28;103941;-66
2022/07/21 01:00:25;;;;;;;4.50;4.10;;;;;;;21.88;66.67;100842.84;4975818;28;102955;-66
2022/07/21 01:02:52;;;;;;;5.55;3.72;;;;;;;21.87;66.39;100845.97;4976858;28;102305;-66
2022/07/21 01:05:19;;;;;;;4.80;3.50;;;;;;;21.86;66.67;100836.03;4976644;28;102666;-66
2022/07/21 01:07:50;;;;;;;4.03;3.63;;;;;;;21.86;66.74;100841.59;4972876;28;103972;-66
2022/07/21 01:10:20;;;;;;;4.22;3.83;;;;;;;21.86;66.47;100841.59;4974651;28;102154;-66
2022/07/21 01:12:46;;;;;;;4.20;3.80;;;;;;;21.86;66.95;100841.59;4976249;28;102253;-66
2022/07/21 01:15:14;;;;;;;3.97;3.63;;;;;;;21.84;66.78;100842.72;4977598;28;102574;-67
2022/07/21 01:17:43;;;;;;;4.28;3.88;;;;;;;21.83;66.71;100841.09;4976147;28;104070;-66
2022/07/21 01:20:13;;;;;;;4.25;3.85;;;;;;;21.83;66.73;100835.56;4975048;28;101989;-66
2022/07/21 01:22:47;;;;;;;4.10;3.53;;;;;;;21.84;67.26;100845.47;4975244;28;102244;-66
2022/07/21 01:25:15;;;;;;;5.13;4.13;;;;;;;21.83;66.96;100852.19;4977407;28;102375;-66
2022/07/21 01:27:41;;;;;;;4.13;3.72;;;;;;;21.83;67.07;100860.50;4975368;28;103968;-66
2022/07/21 01:30:10;;;;;;;4.50;3.70;;;;;;;21.83;66.69;100860.50;4976558;28;102297;-66
2022/07/21 01:32:38;;;;;;;4.60;4.20;;;;;;;21.83;67.12;100865.22;4974927;28;102259;-66
2022/07/21 01:35:07;;;;;;;4.05;3.65;;;;;;;21.82;66.72;100858.88;4977370;28;102040;-66
2022/07/21 01:37:40;;;;;;;4.50;3.92;;;;;;;21.82;66.83;100856.13;4968234;28;103863;-66
2022/07/21 01:42:55;;;;;;;4.13;3.77;;;;;;;21.81;66.90;100848.94;4974810;28;101916;-59
2022/07/21 01:45:23;;;;;;;4.25;3.65;;;;;;;21.81;67.15;100854.47;4977625;28;102256;-66
2022/07/21 01:47:50;;;;;;;4.88;3.90;;;;;;;21.81;67.18;100854.47;4974895;28;104054;-66
2022/07/21 01:50:22;;;;;;;4.68;3.67;;;;;;;21.82;67.07;100858.09;4974519;28;102172;-66
2022/07/21 01:52:49;;;;;;;4.45;4.05;;;;;;;21.82;66.75;100863.63;4975293;28;103710;-66
2022/07/21 01:55:17;;;;;;;5.50;4.00;;;;;;;21.80;66.90;100858.41;4977431;28;102711;-66
2022/07/21 01:57:44;;;;;;;3.97;3.67;;;;;;;21.81;67.08;100867.53;4974269;28;104201;-66
2022/07/21 02:00:11;;;;;;;3.55;3.25;;;;;;;21.80;66.90;100877.81;4976230;28;102378;-65
2022/07/21 02:02:38;;;;;;;4.00;3.55;;;;;;;21.80;67.07;100866.72;4975690;28;102051;-66
2022/07/21 02:05:06;;;;;;;4.93;3.90;;;;;;;21.81;66.92;100884.16;4976152;28;102165;-66
2022/07/21 02:07:34;;;;;;;4.50;3.97;;;;;;;21.81;66.94;100878.59;4961707;28;104100;-66
2022/07/21 02:10:01;;;;;;;3.85;3.55;;;;;;;21.80;67.09;100865.91;4976524;28;102204;-66
2022/07/21 02:12:29;;;;;;;5.60;3.67;;;;;;;21.80;66.82;100872.25;4974726;28;102342;-66
2022/07/21 02:14:55;;;;;;;3.80;3.50;;;;;;;21.79;66.89;100869.84;4976832;28;102168;-66
2022/07/21 02:17:23;;;;;;;3.80;3.40;;;;;;;21.79;67.01;100870.66;4974096;28;103940;-66
2022/07/21 02:19:51;;;;;;;4.07;3.55;;;;;;;21.79;66.77;100873.44;4975389;28;102300;-66
2022/07/21 02:22:18;;;;;;;3.42;3.13;;;;;;;21.79;66.84;100878.97;4975568;28;102276;-66
2022/07/21 02:24:44;;;;;;;3.90;3.60;;;;;;;21.80;66.86;100879.78;4976401;28;103231;-66
2022/07/21 02:27:12;;;;;;;3.90;3.60;;;;;;;21.79;66.93;100881.72;4973048;28;104034;-66
2022/07/21 02:29:41;;;;;;;5.30;3.53;;;;;;;21.78;66.85;100880.13;4974166;28;103404;-66
2022/07/21 02:32:07;;;;;;;4.20;3.80;;;;;;;21.77;66.94;100884.03;4977500;28;102336;-66
2022/07/21 02:34:34;;;;;;;4.30;3.90;;;;;;;21.78;66.76;100885.66;4980225;28;102227;-66
2022/07/21 02:37:00;;;;;;;5.03;4.35;;;;;;;21.78;66.84;100888.44;4977310;28;103942;-66
2022/07/21 02:39:27;;;;;;;4.30;3.90;;;;;;;21.77;66.88;100889.56;4979050;28;102128;-66
2022/07/21 02:41:54;;;;;;;4.63;3.90;;;;;;;21.77;66.87;100895.09;4974586;28;102664;-66
2022/07/21 02:44:20;;;;;;;4.38;3.85;;;;;;;21.76;66.81;100899.03;4979446;28;103235;-66
2022/07/21 02:46:48;;;;;;;3.70;3.40;;;;;;;21.76;66.75;100904.56;4977282;28;104039;-66
2022/07/21 02:49:15;;;;;;;3.80;3.47;;;;;;;21.76;66.99;100899.03;4979176;28;102153;-66
2022/07/21 02:51:42;;;;;;;3.90;3.60;;;;;;;21.76;66.73;100899.03;4976754;28;102416;-66
2022/07/21 02:54:08;;;;;;;3.88;3.55;;;;;;;21.76;67.20;100901.81;4979887;28;102211;-66
2022/07/21 02:56:35;;;;;;;4.57;3.70;;;;;;;21.76;66.91;100904.56;4976654;28;103738;-66
2022/07/21 02:59:01;;;;;;;3.45;3.13;;;;;;;21.77;66.87;100905.38;4978354;28;102382;-65
2022/07/21 03:01:30;;;;;;;4.57;3.70;;;;;;;21.77;66.92;100917.25;4978951;28;102498;-66
2022/07/21 03:03:58;;;;;;;3.70;3.28;;;;;;;21.77;67.11;100924.78;4978311;28;102640;-65
2022/07/21 03:06:24;;;;;;;3.70;3.40;;;;;;;21.77;66.88;100919.22;4977152;28;104186;-66
2022/07/21 03:08:51;;;;;;;3.72;3.40;;;;;;;21.78;67.20;100927.22;4978513;28;102040;-66
2022/07/21 03:11:17;;;;;;;3.97;3.60;;;;;;;21.76;66.86;100923.97;4971406;28;102017;-66
2022/07/21 03:13:47;;;;;;;3.92;3.63;;;;;;;21.76;66.85;100926.75;4969423;28;102563;-66
2022/07/21 03:16:13;;;;;;;3.88;3.58;;;;;;;21.76;66.61;100926.75;4972807;28;104027;-66
2022/07/21 03:18:41;;;;;;;4.30;3.90;;;;;;;21.77;66.86;100931.13;4977725;28;102264;-66
2022/07/21 03:21:09;;;;;;;3.47;3.17;;;;;;;21.78;67.02;100930.00;4977451;28;102043;-65
2022/07/21 03:23:35;;;;;;;3.70;3.33;;;;;;;21.79;66.93;100930.78;4978437;28;102605;-66
2022/07/21 03:26:02;;;;;;;3.50;3.25;;;;;;;21.78;67.12;100941.06;4976191;28;103745;-66
2022/07/21 03:28:28;;;;;;;3.70;3.40;;;;;;;21.78;66.92;100938.31;4978336;28;102034;-65
2022/07/21 03:30:55;;;;;;;4.35;3.38;;;;;;;21.80;66.79;100960.09;4977700;28;101963;-66
2022/07/21 03:33:22;;;;;;;3.55;3.25;;;;;;;21.80;67.05;100943.47;4979168;28;102181;-66
2022/07/21 03:35:48;;;;;;;5.18;3.30;;;;;;;21.79;67.13;100950.19;4975133;28;104014;-66
2022/07/21 03:38:16;;;;;;;4.63;3.53;;;;;;;21.79;67.22;100958.50;4978472;28;101913;-66
2022/07/21 03:40:43;;;;;;;5.00;3.93;;;;;;;21.80;67.32;100965.66;4976527;28;102138;-66
2022/07/21 03:43:11;;;;;;;;;;;;;;;21.79;67.12;100964.84;4979021;28;102154;-66
2022/07/21 03:45:38;;;;;;;5.80;3.47;;;;;;;21.80;66.97;100966.44;4976007;28;103933;-66
2022/07/21 03:48:06;;;;;;;3.30;3.00;;;;;;;21.80;67.06;100960.91;4976252;28;103393;-66
2022/07/21 03:50:36;;;;;;;4.30;3.90;;;;;;;21.80;66.88;100965.66;4975568;28;102434;-65
2022/07/21 03:53:04;;;;;;;3.38;3.08;;;;;;;21.81;67.13;100968.06;4978559;28;102197;-66
2022/07/21 03:55:32;;;;;;;3.95;3.35;;;;;;;21.82;67.29;100969.72;4970312;28;104108;-66
2022/07/21 03:58:01;;;;;;;3.90;3.50;;;;;;;21.84;67.30;100977.66;4965885;28;101915;-67
2022/07/21 04:00:28;;;;;;;;;;;;;;;21.83;67.31;100976.06;4977999;28;102462;-66
2022/07/21 04:02:55;;;;;;;3.55;3.25;;;;;;;21.83;67.15;100982.41;4977411;28;102675;-67
2022/07/21 04:05:22;;;;;;;3.53;3.22;;;;;;;21.83;67.27;100974.09;4976204;28;104017;-66
2022/07/21 04:07:51;;;;;;;3.80;3.50;;;;;;;21.83;67.28;100985.16;4977363;28;102465;-66
2022/07/21 04:10:21;;;;;;;4.53;3.80;;;;;;;21.84;67.28;100977.66;4976512;28;101979;-66
2022/07/21 04:12:49;;;;;;;3.83;3.50;;;;;;;21.84;67.27;100984.00;4978231;28;102332;-65
2022/07/21 04:15:17;;;;;;;4.15;3.63;;;;;;;21.83;67.29;100982.41;4974854;28;103914;-65
2022/07/21 04:17:45;;;;;;;4.20;3.80;;;;;;;21.86;67.21;100991.19;4977252;28;102242;-66
2022/07/21 04:20:13;;;;;;;4.10;3.80;;;;;;;21.86;67.09;100985.66;4977178;28;102241;-66
2022/07/21 04:22:43;;;;;;;4.07;3.67;;;;;;;21.86;67.08;100985.66;4977645;28;102249;-66
2022/07/21 04:25:11;;;;;;;4.63;3.30;;;;;;;21.86;67.04;100980.91;4975917;28;103917;-65
2022/07/21 04:27:38;;;;;;;5.75;3.90;;;;;;;21.86;66.95;100985.66;4976442;28;102189;-66
2022/07/21 04:30:09;;;;;;;3.90;3.60;;;;;;;21.87;67.24;100981.72;4957480;28;102629;-66
2022/07/21 04:32:35;;;;;;;3.83;3.53;;;;;;;21.88;67.26;100999.94;4958888;28;102485;-66
2022/07/21 04:35:03;;;;;;;4.10;3.53;;;;;;;21.87;67.11;100993.59;4963476;28;104304;-65
2022/07/21 04:37:30;;;;;;;4.00;3.60;;;;;;;21.87;67.03;100988.06;4977402;28;101991;-66
2022/07/21 04:39:56;;;;;;;5.32;3.90;;;;;;;21.87;66.99;101003.88;4974642;28;102205;-66
2022/07/21 04:42:23;;;;;;;3.97;3.17;;;;;;;21.87;67.21;100996.38;4976975;28;102379;-66
2022/07/21 04:44:50;;;;;;;4.13;3.70;;;;;;;21.87;67.22;101003.88;4975754;28;103882;-66
2022/07/21 04:47:18;;;;;;;3.80;3.42;;;;;;;21.88;66.95;101000.75;4976463;28;101951;-66
2022/07/21 04:49:46;;;;;;;4.03;3.67;;;;;;;21.87;66.92;101004.69;4976840;28;101951;-66
2022/07/21 04:52:12;;;;;;;3.60;3.30;;;;;;;21.88;67.05;101006.31;4978275;28;102581;-65
2022/07/21 04:54:39;;;;;;;4.28;3.88;;;;;;;21.88;66.96;101005.50;4973796;28;103936;-66
2022/07/21 04:57:06;;;;;;;4.13;3.70;;;;;;;21.89;66.77;101007.94;4977636;28;102374;-66
2022/07/21 04:59:33;;;;;;;4.47;3.88;;;;;;;21.89;66.76;101007.94;4975699;28;102524;-66
2022/07/21 05:02:00;;;;;;;3.40;3.10;;;;;;;21.89;66.83;101004.34;4976918;28;102356;-66
2022/07/21 05:04:28;;;;;;;4.18;3.58;;;;;;;21.91;66.90;101011.16;4974788;28;103930;-66
2022/07/21 05:06:55;;;;;;;4.43;3.20;;;;;;;21.90;66.61;101005.97;4975904;28;102127;-66
2022/07/21 05:09:22;;;;;;;3.80;3.47;;;;;;;21.93;67.00;101013.63;4974610;28;102619;-66
2022/07/21 05:11:49;;;;;;;3.60;3.30;;;;;;;21.93;66.85;101019.97;4965853;28;102174;-66
2022/07/21 05:14:17;;;;;;;3.38;3.08;;;;;;;21.92;66.85;101018.31;4966162;28;104133;-66
2022/07/21 05:16:43;;;;;;;3.70;3.05;;;;;;;21.93;66.39;101019.97;4972793;28;102280;-66
2022/07/21 05:19:10;;;;;;;3.38;2.88;;;;;;;21.95;66.58;101023.19;4975270;28;102207;-66
2022/07/21 05:21:38;;;;;;;3.08;2.78;;;;;;;21.96;66.50;101022.06;4966678;28;102461;-66
2022/07/21 05:24:05;;;;;;;3.58;3.28;;;;;;;21.97;66.60;101020.09;4976245;28;104143;-65
2022/07/21 05:26:32;;;;;;;3.30;3.00;;;;;;;21.99;66.65;101012.22;4976461;28;101987;-67
2022/07/21 05:28:58;;;;;;;2.70;2.50;;;;;;;22.02;66.91;101019.88;4975288;28;102484;-66
2022/07/21 05:31:25;;;;;;;3.67;2.70;;;;;;;22.01;66.84;101024.59;4972871;28;102559;-65
2022/07/21 05:33:52;;;;;;;2.83;2.60;;;;;;;22.03;66.74;101018.69;4975636;28;104091;-66
2022/07/21 05:36:18;;;;;;;3.20;2.50;;;;;;;22.05;66.44;101022.75;4976748;28;101842;-66
2022/07/21 05:38:46;;;;;;;2.90;2.70;;;;;;;22.06;66.27;101023.56;4975523;28;102007;-66
2022/07/21 05:41:13;;;;;;;4.20;3.10;;;;;;;22.07;66.51;101019.66;4975781;28;102644;-65
2022/07/21 05:43:40;;;;;;;2.88;2.50;;;;;;;22.10;66.48;101024.50;4975897;28;103965;-66
2022/07/21 05:46:07;;;;;;;2.92;2.63;;;;;;;22.12;66.25;101029.72;4975442;28;102595;-65
2022/07/21 05:48:34;;;;;;;2.63;2.42;;;;;;;22.14;64.44;101025.47;4973924;28;102075;-66
2022/07/21 05:51:00;;;;;;;3.58;2.65;;;;;;;22.16;66.04;101028.72;4976126;28;102306;-66
2022/07/21 05:53:27;;;;;;;4.78;2.78;;;;;;;22.16;63.88;101017.63;4975590;28;103961;-66
2022/07/21 05:55:55;;;;;;;3.40;2.70;;;;;;;22.19;62.78;101019.72;4975686;28;102057;-65
2022/07/21 05:58:24;;;;;;;3.95;2.95;;;;;;;22.20;65.65;101018.56;4972488;28;102654;-66
2022/07/21 06:01:07;;;;;;;;;;;;;;;22.21;66.12;101024.91;4975906;28;102684;-66
2022/07/21 06:03:34;;;;;;;3.17;2.80;;;;;;;22.20;65.99;101029.66;4972246;28;103870;-66
2022/07/21 06:06:01;;;;;;;3.40;3.00;;;;;;;22.22;65.11;101032.09;4970580;28;105239;-66
2022/07/21 06:08:28;;;;;;;4.10;2.67;;;;;;;22.20;66.22;101032.41;4976499;28;102213;-64
2022/07/21 06:10:56;;;;;;;3.67;2.35;;;;;;;22.22;65.78;101029.31;4979586;28;102168;-65
2022/07/21 06:13:23;;;;;;;3.40;3.10;;;;;;;22.22;66.19;101032.91;4977563;28;103926;-65
2022/07/21 06:15:49;;;;;;;3.67;3.03;;;;;;;22.23;65.87;101034.50;4972373;28;102279;-65
2022/07/21 06:18:16;;;;;;;4.72;2.55;;;;;;;22.23;65.50;101034.50;4976305;28;102473;-66
2022/07/21 06:20:44;;;;;;;2.83;2.60;;;;;;;22.25;66.33;101034.16;4973231;28;102335;-66
2022/07/21 06:23:10;;;;;;;2.63;2.42;;;;;;;22.26;66.03;101036.59;4977923;28;104049;-65
2022/07/21 06:25:36;;;;;;;4.40;2.50;;;;;;;22.27;66.09;101034.63;4979505;28;102321;-65
2022/07/21 06:28:05;;;;;;;2.50;2.30;;;;;;;22.28;66.11;101042.59;4979033;28;102317;-65
2022/07/21 06:30:31;;;;;;;3.10;2.40;;;;;;;22.27;66.19;101042.94;4979365;28;102220;-65
2022/07/21 06:32:58;;;;;;;3.13;2.47;;;;;;;22.27;66.32;101037.41;4978490;28;103965;-65
2022/07/21 06:35:25;;;;;;;2.63;2.42;;;;;;;22.27;66.24;101049.31;4979437;28;102316;-64
2022/07/21 06:37:51;;;;;;;2.92;2.38;;;;;;;22.26;66.37;101039.38;4969235;28;102332;-65
2022/07/21 06:40:19;;;;;;;2.45;2.10;;;;;;;22.28;66.23;101036.25;4962757;28;102367;-65
2022/07/21 06:42:45;;;;;;;2.50;2.30;;;;;;;22.30;66.11;101051.41;4966117;28;104029;-65
2022/07/21 06:45:13;;;;;;;2.50;2.17;;;;;;;22.28;66.24;101042.59;4977335;28;102939;-65
2022/07/21 06:47:41;;;;;;;3.80;2.40;;;;;;;22.30;66.13;101040.31;4976693;28;102611;-65
2022/07/21 06:50:09;;;;;;;4.35;2.45;;;;;;;22.29;66.38;101035.91;4969752;28;102154;-64
2022/07/21 06:52:37;;;;;;;3.42;2.60;;;;;;;22.29;66.08;101032.34;4975655;28;104055;-65
2022/07/21 06:55:06;;;;;;;4.18;2.58;;;;;;;22.31;65.99;101046.66;4971478;28;102132;-65
2022/07/21 06:57:33;;;;;;;3.25;2.50;;;;;;;22.31;65.97;101035.56;4958493;28;102065;-65
2022/07/21 07:00:00;;;;;;;2.20;2.00;;;;;;;22.32;66.03;101031.63;4970215;28;103740;-65
2022/07/21 07:02:28;;;;;;;4.32;2.30;;;;;;;22.34;66.12;101034.06;4974810;28;103935;-65
2022/07/21 07:04:54;;;;;;;2.30;2.10;;;;;;;22.33;65.88;101038.81;4973202;28;102545;-65
2022/07/21 07:07:25;;;;;;;4.80;2.10;;;;;;;22.33;66.21;101038.00;4978081;28;102334;-66
2022/07/21 07:09:51;;;;;;;3.72;2.22;;;;;;;22.34;65.93;101039.63;4978935;28;102337;-65
2022/07/21 07:12:18;;;;;;;2.75;2.20;;;;;;;22.35;66.01;101041.22;4968994;28;103730;-65
2022/07/21 07:14:44;;;;;;;2.70;2.03;;;;;;;22.33;65.92;101026.91;4978212;28;102355;-66
2022/07/21 07:17:16;;;;;;;4.00;2.08;;;;;;;22.34;66.05;101028.53;4977602;28;102575;-66
2022/07/21 07:19:44;;;;;;;3.20;2.33;;;;;;;22.34;66.07;101040.44;4979290;28;102323;-66
2022/07/21 07:22:10;;;;;;;2.70;2.10;;;;;;;22.34;66.00;101020.22;4977523;28;103960;-65
2022/07/21 07:24:37;;;;;;;1.98;1.85;;;;;;;22.31;66.06;101036.38;4977917;28;102237;-65
2022/07/21 07:27:03;;;;;;;2.75;2.10;;;;;;;22.33;65.69;101021.38;4977178;28;102214;-66
2022/07/21 07:29:31;;;;;;;2.20;2.00;;;;;;;22.34;65.82;101025.75;4979663;28;102616;-66
2022/07/21 07:31:58;;;;;;;2.33;1.85;;;;;;;22.35;65.44;101024.59;4977021;28;103805;-66
2022/07/21 07:34:24;;;;;;;2.20;2.00;;;;;;;22.34;65.89;101028.53;4963694;28;102729;-65
2022/07/21 07:36:52;;;;;;;4.38;2.25;;;;;;;22.37;65.79;101016.75;4971052;28;102657;-65
2022/07/21 07:39:19;;;;;;;1.87;1.70;;;;;;;22.37;65.77;101022.31;4978148;28;102399;-65
2022/07/21 07:41:46;;;;;;;4.75;2.15;;;;;;;22.36;65.82;101018.72;4968416;28;104171;-66
2022/07/21 07:44:12;;;;;;;1.92;1.83;;;;;;;22.37;65.87;101022.31;4976458;28;102335;-66
2022/07/21 07:46:39;;;;;;;2.22;1.95;;;;;;;22.34;66.09;101026.56;4976646;28;102051;-66
2022/07/21 07:49:05;;;;;;;2.45;1.77;;;;;;;22.35;65.88;101027.38;4977532;28;102639;-64
2022/07/21 07:51:32;;;;;;;3.38;2.20;;;;;;;22.34;65.53;101028.53;4975940;28;104027;-65
2022/07/21 07:54:03;;;;;;;1.70;1.60;;;;;;;22.35;65.68;101021.81;4977665;28;102349;-65
2022/07/21 07:56:30;;;;;;;3.08;1.92;;;;;;;22.34;65.52;101017.44;4977026;28;102380;-65
2022/07/21 07:58:56;;;;;;;2.30;2.03;;;;;;;22.34;65.67;101012.69;4978697;28;102446;-66
2022/07/21 08:01:23;;;;;;;1.80;1.70;;;;;;;22.33;65.86;101010.28;4974193;28;104051;-65
2022/07/21 08:03:49;;;;;;;1.85;1.60;;;;;;;22.33;65.84;101013.88;4971476;28;102140;-65
2022/07/21 08:06:16;;;;;;;2.15;2.00;;;;;;;22.33;65.68;101010.28;4977402;28;102210;-65
2022/07/21 08:08:42;;;;;;;2.17;1.95;;;;;;;22.33;65.73;101011.09;4973858;28;102536;-65
2022/07/21 08:11:13;;;;;;;3.50;1.70;;;;;;;22.35;65.57;101017.09;4975908;28;103973;-65
2022/07/21 08:13:39;;;;;;;3.30;2.00;;;;;;;22.36;65.54;101002.09;4977805;28;102134;-66
2022/07/21 08:16:06;;;;;;;2.63;1.80;;;;;;;22.37;65.65;101016.75;4976696;28;102512;-65
2022/07/21 08:18:33;;;;;;;2.53;1.92;;;;;;;22.36;65.67;101018.72;4977982;28;102685;-66
2022/07/21 08:20:59;;;;;;;3.35;1.63;;;;;;;22.37;65.50;101003.69;4976813;28;103849;-65
2022/07/21 08:23:26;;;;;;;1.65;1.42;;;;;;;22.36;65.74;100996.53;4975895;28;102725;-65
2022/07/21 08:25:52;;;;;;;3.30;1.92;;;;;;;22.36;65.75;101004.03;4975059;28;102203;-65
2022/07/21 08:28:20;;;;;;;2.58;1.80;;;;;;;22.36;65.32;100999.31;4976681;28;102383;-65
2022/07/21 08:30:47;;;;;;;1.80;1.70;;;;;;;22.38;65.41;101001.72;4970290;28;104122;-65
2022/07/21 08:33:13;;;;;;;2.38;1.92;;;;;;;22.37;65.53;101000.13;4976059;28;102265;-65
2022/07/21 08:35:40;;;;;;;3.53;1.70;;;;;;;22.37;65.45;101000.13;4977528;28;102034;-65
2022/07/21 08:38:09;;;;;;;1.90;1.70;;;;;;;22.38;65.53;100998.97;4978484;28;102213;-65
2022/07/21 08:40:38;;;;;;;1.95;1.75;;;;;;;22.37;65.72;101000.13;4976319;28;104112;-65
2022/07/21 08:43:06;;;;;;;1.95;1.73;;;;;;;22.36;65.52;100990.16;4976517;28;103085;-65
2022/07/21 08:45:34;;;;;;;2.00;1.80;;;;;;;22.36;65.59;100998.47;4977049;28;102216;-65
2022/07/21 08:48:02;;;;;;;1.75;1.65;;;;;;;22.36;65.59;100981.84;4978090;28;102468;-65
2022/07/21 08:50:30;;;;;;;2.13;1.75;;;;;;;22.35;65.38;100980.22;4976094;28;103900;-64
2022/07/21 08:52:57;;;;;;;1.73;1.63;;;;;;;22.37;65.14;100983.47;4976955;28;102233;-66
2022/07/21 08:55:28;;;;;;;3.28;1.95;;;;;;;22.39;65.17;100992.25;4977205;28;102392;-65
2022/07/21 08:57:55;;;;;;;1.80;1.70;;;;;;;22.38;65.20;100980.34;4978024;28;102603;-64
2022/07/21 09:00:22;;;;;;;3.17;2.50;;;;;;;22.38;65.44;100977.56;4976373;28;103736;-65
2022/07/21 09:03:07;;;;;;;1.70;1.60;;;;;;;22.38;65.75;100979.56;4977122;28;102324;-65
2022/07/21 09:05:34;;;;;;;1.80;1.70;;;;;;;22.40;65.39;100971.72;4976448;28;102120;-65
2022/07/21 09:08:01;;;;;;;1.73;1.60;;;;;;;22.39;65.29;100981.97;4977834;28;102460;-65
2022/07/21 09:10:32;;;;;;;1.80;1.70;;;;;;;22.39;65.44;100975.63;4962265;28;103424;-65
2022/07/21 09:13:02;;;;;;;2.17;1.58;;;;;;;22.36;65.31;100976.28;4971849;28;102177;-65
2022/07/21 09:15:31;;;;;;;1.70;1.60;;;;;;;22.35;65.45;100969.13;4971473;28;102674;-65
2022/07/21 09:18:08;;;;;;;2.00;1.80;;;;;;;22.35;65.32;100960.81;4975428;28;102025;-65
2022/07/21 09:20:35;;;;;;;1.80;1.70;;;;;;;22.35;65.41;100958.06;4976378;28;103968;-65
2022/07/21 09:23:04;;;;;;;1.85;1.75;;;;;;;22.37;65.05;100967.66;4977021;28;102194;-66
2022/07/21 09:25:37;;;;;;;2.47;2.00;;;;;;;22.36;65.28;100954.13;4969943;28;103530;-65
2022/07/21 09:28:15;;;;;;;1.50;1.40;;;;;;;22.34;65.16;100956.44;4976127;28;102282;-65
2022/07/21 09:30:55;;;;;;;2.38;1.75;;;;;;;22.33;65.32;100961.19;4973126;28;103909;-65
2022/07/21 09:33:27;;;;;;;1.92;1.73;;;;;;;22.35;65.07;100953.31;4975933;28;102202;-65
2022/07/21 09:35:59;;;;;;;2.00;1.88;;;;;;;22.35;65.13;100949.72;4974935;28;102406;-65
2022/07/21 09:38:28;;;;;;;2.00;1.67;;;;;;;22.34;65.19;100951.69;4975879;28;102127;-65
2022/07/21 09:40:58;;;;;;;1.80;1.70;;;;;;;22.35;65.13;100941.41;4973559;28;103915;-65
2022/07/21 09:43:33;;;;;;;1.75;1.65;;;;;;;22.37;65.10;100947.44;4979405;28;102051;-65
2022/07/21 09:46:01;;;;;;;2.10;1.90;;;;;;;22.35;65.08;100949.72;4978412;28;102260;-65
2022/07/21 09:48:36;;;;;;;1.77;1.67;;;;;;;22.32;64.89;100954.00;4980063;28;102282;-65
2022/07/21 09:51:24;;;;;;;1.90;1.63;;;;;;;22.30;65.17;100948.81;4973573;28;103874;-65
2022/07/21 09:53:53;;;;;;;3.05;1.80;;;;;;;22.29;65.05;100952.75;4978947;28;102349;-65
2022/07/21 09:56:21;;;;;;;1.98;1.75;;;;;;;22.31;64.84;100941.28;4977283;28;102411;-66
2022/07/21 09:58:48;;;;;;;1.77;1.67;;;;;;;22.31;64.73;100938.53;4977973;28;102346;-65
2022/07/21 10:01:15;;;;;;;1.70;1.60;;;;;;;22.31;64.57;100936.56;4979303;28;103132;-65
2022/07/21 10:03:46;;;;;;;1.80;1.63;;;;;;;22.30;64.74;100939.69;4978505;28;102427;-65
2022/07/21 10:06:15;;;;;;;2.35;2.00;;;;;;;22.32;64.76;100931.81;4977109;28;102205;-65
2022/07/21 10:08:43;;;;;;;3.33;1.75;;;;;;;22.34;65.08;100925.94;4978623;28;102304;-65
2022/07/21 10:11:10;;;;;;;2.85;2.40;;;;;;;22.34;65.09;100923.16;4974319;28;103977;-65
2022/07/21 10:13:38;;;;;;;1.65;1.55;;;;;;;22.33;64.98;100927.09;4970138;28;102718;-65
2022/07/21 10:16:06;;;;;;;1.70;1.60;;;;;;;22.30;64.98;100934.94;4967740;28;102361;-65
2022/07/21 10:18:39;;;;;;;3.22;1.63;;;;;;;22.31;64.76;100931.00;4977769;28;102222;-65
2022/07/21 10:21:21;;;;;;;2.13;1.60;;;;;;;22.30;65.17;100929.41;4979074;28;103957;-68
2022/07/21 10:23:53;;;;;;;1.50;1.40;;;;;;;22.29;64.83;100938.06;4979400;28;102324;-65
2022/07/21 10:26:20;;;;;;;1.85;1.67;;;;;;;22.28;64.96;100931.69;4978811;28;102088;-65
2022/07/21 10:28:47;;;;;;;1.70;1.60;;;;;;;22.31;64.82;100927.44;4980376;28;102620;-65
2022/07/21 10:31:16;;;;;;;1.88;1.77;;;;;;;22.31;64.64;100935.75;4977774;28;103933;-65
2022/07/21 10:34:02;;;;;;;2.45;1.77;;;;;;;22.28;64.65;100936.44;4978645;28;102178;-65
2022/07/21 10:36:45;;;;;;;2.08;1.63;;;;;;;22.25;64.61;100915.78;4977445;28;103755;-65
2022/07/21 10:39:24;;;;;;;2.58;1.60;;;;;;;22.26;64.54;100916.59;4975699;28;102337;-65
2022/07/21 10:41:53;;;;;;;1.70;1.60;;;;;;;22.26;64.20;100914.63;4977884;28;107996;-64
2022/07/21 10:44:34;;;;;;;;;;;;;;;22.26;64.61;100931.25;4977352;28;102400;-64
2022/07/21 10:47:06;;;;;;;1.88;1.55;;;;;;;22.25;64.69;100926.88;4972849;28;102542;-65
2022/07/21 10:49:48;;;;;;;2.38;1.63;;;;;;;22.23;64.39;100911.72;4979466;28;102343;-65
2022/07/21 10:53:08;;;;;;;1.65;1.50;;;;;;;22.24;64.34;100924.44;4976530;28;104100;-65
2022/07/21 10:55:37;;;;;;;2.58;1.77;;;;;;;22.24;64.12;100925.22;4933823;28;102304;-64
2022/07/21 10:58:13;;;;;;;3.88;1.63;;;;;;;22.25;64.41;100915.78;4970408;28;102142;-64
2022/07/21 11:00:45;;;;;;;1.83;1.50;;;;;;;22.27;64.29;100918.19;4974999;28;102994;-65
2022/07/21 11:03:31;;;;;;;3.47;1.52;;;;;;;22.26;64.48;100917.38;4972168;28;105627;-65
2022/07/21 11:06:15;;;;;;;1.63;1.52;;;;;;;22.26;64.38;100911.03;4957416;28;102210;-65
2022/07/21 11:08:46;;;;;;;1.77;1.67;;;;;;;22.27;64.55;100913.44;4956542;28;102269;-66
2022/07/21 11:11:16;;;;;;;1.67;1.52;;;;;;;22.23;64.60;100901.44;4956488;28;102457;-64
2022/07/21 11:14:06;;;;;;;1.67;1.58;;;;;;;22.23;64.49;100904.22;4955475;28;103857;-65
2022/07/21 11:17:03;;;;;;;1.58;1.40;;;;;;;22.21;64.52;100903.75;4957905;28;102516;-65
2022/07/21 11:19:34;;;;;;;1.95;1.83;;;;;;;22.20;64.84;100896.59;4896814;28;102592;-65
2022/07/21 11:22:02;;;;;;;1.52;1.40;;;;;;;22.18;64.45;100893.38;4946262;28;102178;-65
2022/07/21 11:24:29;;;;;;;2.00;1.80;;;;;;;22.22;62.72;100888.75;4958579;28;103957;-65
2022/07/21 11:27:00;;;;;;;3.88;1.60;;;;;;;22.21;64.47;100887.09;4959090;28;102273;-65